Weather reports worldwide

Advertisment
Kew Gardens, United Kingdom (99095): temperature & dewpoint: 04.07.2020 04:00:00 - 10.07.2020 04:00:00 (BST)Kew Gardens, United Kingdom (99095): temperature -20cm & temperature -100cm: 04.07.2020 04:00:00 - 10.07.2020 04:00:00 (BST)Kew Gardens, United Kingdom (99095): wind speed & gusts: 04.07.2020 04:00:00 - 10.07.2020 04:00:00 (BST)Kew Gardens, United Kingdom (99095): wind direction: 04.07.2020 04:00:00 - 10.07.2020 04:00:00 (BST)Kew Gardens, United Kingdom (99095): precipitation: 04.07.2020 04:00:00 - 10.07.2020 04:00:00 (BST)
Date & Time tt [°C] td [°C] tt -20cm [°C] tt -100cm [°C] ff [km/h] ff [kn] fx [km/h] fx [kn] dd rr [mm]
10.07.2020 04:00:00 - - - - - - - - - -
10.07.2020 03:00:00 13,7 12,2 - - 11 6 - - NW 0,0
10.07.2020 02:00:00 13,9 12,6 - - 9 5 - - NW 0,0
10.07.2020 01:00:00 14,3 12,8 - - 9 5 - - NW 0,0
10.07.2020 00:00:00 15,1 13,5 - - 11 6 - - NNW 0,0
09.07.2020 23:00:00 15,5 14,3 - - 9 5 - - NNW 0,0
09.07.2020 22:00:00 15,9 15,2 - - 5 3 - - NNW 1,8
09.07.2020 21:00:00 18,1 15,4 - - 9 5 - - WSW 0,0
09.07.2020 20:00:00 18,3 15,6 - - 5 3 - - WSW 0,0
09.07.2020 19:00:00 18,4 15,7 - - 9 5 - - WSW 0,0
09.07.2020 18:00:00 18,5 16,1 - - 8 4 - - SW 0,0
09.07.2020 17:00:00 18,3 16,7 - - 8 4 - - SW 0,2
09.07.2020 16:00:00 17,7 16,2 - - 8 4 - - SW 0,2
09.07.2020 15:00:00 18,6 15,5 - - 8 4 - - SW 0,0
09.07.2020 14:00:00 19,8 15,3 - - 11 6 - - SW 0,0
09.07.2020 13:00:00 19,9 15,1 - - 11 6 - - SW 0,0
09.07.2020 12:00:00 19,4 14,9 - - 8 4 - - SW 0,0
09.07.2020 11:00:00 18,3 15,2 - - 9 5 - - WSW 0,0
09.07.2020 10:00:00 17,4 14,7 18,2 17,9 9 5 - - WSW 0,0
09.07.2020 09:00:00 17,3 14,7 - - 9 5 - - WSW 0,0
09.07.2020 08:00:00 16,6 14,6 - - 9 5 - - WSW 0,0
09.07.2020 07:00:00 15,9 14,6 - - 11 6 - - SW 0,2
09.07.2020 06:00:00 15,9 14,7 - - 9 5 - - SW 0,0
09.07.2020 05:00:00 16,1 15,0 - - 8 4 - - SW 0,6
09.07.2020 04:00:00 16,5 15,5 - - 8 4 - - SSW 0,0
09.07.2020 03:00:00 16,6 15,7 - - 8 4 - - SW 0,0
09.07.2020 02:00:00 16,9 15,8 - - 8 4 - - SW 0,0
09.07.2020 01:00:00 17,0 16,1 - - 8 4 - - SW 0,2
09.07.2020 00:00:00 17,3 16,7 - - 5 3 - - SW 0,0
08.07.2020 23:00:00 17,2 16,6 - - 4 2 - - SW 0,0
08.07.2020 22:00:00 17,2 16,6 - - 4 2 - - SW 0,0
08.07.2020 21:00:00 17,3 16,6 - - 4 2 - - WSW 0,4
08.07.2020 20:00:00 17,4 16,3 - - 5 3 - - WSW 0,6
08.07.2020 19:00:00 18,6 15,6 - - 11 6 - - W 0,0
08.07.2020 18:00:00 19,4 16,0 - - 5 3 - - WNW 0,0
08.07.2020 17:00:00 19,7 15,9 - - 11 6 - - WNW 0,0
08.07.2020 16:00:00 19,2 15,7 - - 9 5 - - W 0,0
08.07.2020 15:00:00 19,5 15,7 - - 9 5 - - W 0,0
08.07.2020 14:00:00 18,5 14,7 - - 8 4 - - WNW 0,0
08.07.2020 13:00:00 19,2 15,3 - - 11 6 - - W 0,0
08.07.2020 12:00:00 18,2 16,1 - - 9 5 - - W 0,0
08.07.2020 11:00:00 17,8 16,1 - - 8 4 - - WSW 0,0
08.07.2020 10:00:00 16,5 15,7 18,0 18,0 5 3 - - W 0,0
08.07.2020 09:00:00 15,8 15,4 - - 8 4 - - W 0,0
08.07.2020 08:00:00 15,3 14,9 - - 5 3 - - WSW 0,6
08.07.2020 07:00:00 14,8 14,5 - - 5 3 - - WSW 1,8
08.07.2020 06:00:00 14,5 14,2 - - 5 3 - - WSW 2,6
08.07.2020 05:00:00 14,3 14,0 - - 8 4 - - SW 0,8
08.07.2020 04:00:00 14,2 13,9 - - 5 3 - - SW 0,6
08.07.2020 03:00:00 14,1 13,7 - - 5 3 - - SW 0,2
08.07.2020 02:00:00 14,1 13,7 - - 4 2 - - SSW 0,2
08.07.2020 01:00:00 14,1 13,7 - - 4 2 - - S 0,2
08.07.2020 00:00:00 13,9 13,5 - - 4 2 - - SSE 0,2
07.07.2020 23:00:00 13,6 13,2 - - 4 2 - - S 0,6
07.07.2020 22:00:00 13,5 12,9 - - 4 2 - - S 1,0
07.07.2020 21:00:00 13,7 12,6 - - 4 2 - - NW 1,0
07.07.2020 20:00:00 14,3 12,4 - - 5 3 - - NNW 0,0
07.07.2020 19:00:00 17,4 9,8 - - 15 8 - - WNW 0,0
07.07.2020 18:00:00 18,9 8,9 - - 8 4 - - WSW 0,0
07.07.2020 17:00:00 18,9 8,8 - - 11 6 - - WSW 0,0
07.07.2020 16:00:00 19,6 8,0 - - 11 6 - - W 0,0
07.07.2020 15:00:00 19,8 8,5 - - 9 5 - - WSW 0,0
07.07.2020 14:00:00 20,1 7,4 - - 11 6 - - WSW 0,0
07.07.2020 13:00:00 20,5 8,1 - - 11 6 - - WSW 0,0
07.07.2020 12:00:00 19,2 7,8 - - 11 6 - - WSW 0,0
07.07.2020 11:00:00 18,9 8,0 - - 9 5 - - WSW 0,0
07.07.2020 10:00:00 19,1 8,8 17,7 18,0 8 4 - - WSW 0,0
07.07.2020 09:00:00 17,7 9,1 - - 8 4 - - SW 0,0
07.07.2020 08:00:00 15,6 9,3 - - 4 2 - - WSW 0,0
07.07.2020 07:00:00 12,9 9,3 - - 2 1 - - SW 0,0
07.07.2020 06:00:00 10,7 8,6 - - 4 2 - - WSW 0,0
07.07.2020 05:00:00 9,9 8,6 - - 2 1 - - W 0,0
07.07.2020 04:00:00 8,6 7,4 - - 4 2 - - WSW 0,0
07.07.2020 03:00:00 8,1 6,6 - - 0 0 - - N 0,0
07.07.2020 02:00:00 9,0 6,1 - - 2 1 - - W 0,0
07.07.2020 01:00:00 10,4 6,3 - - 2 1 - - S 0,0
07.07.2020 00:00:00 12,1 7,0 - - 0 0 - - N 0,0
06.07.2020 23:00:00 13,9 4,9 - - 4 2 - - NNW 0,0
06.07.2020 22:00:00 16,4 4,9 - - 8 4 - - NNW 0,0
06.07.2020 21:00:00 18,4 6,3 - - 8 4 - - NNW 0,0
06.07.2020 20:00:00 19,1 6,6 - - 11 6 - - WNW 0,0
06.07.2020 19:00:00 20,2 7,8 - - 9 5 - - WNW 0,0
06.07.2020 18:00:00 19,4 7,4 - - 13 7 - - NW 0,0
06.07.2020 17:00:00 19,5 7,4 - - 13 7 - - NW 0,0
06.07.2020 16:00:00 19,1 7,6 - - 16 9 - - NW 0,0
06.07.2020 15:00:00 18,7 7,8 - - 15 8 - - W 0,0
06.07.2020 14:00:00 18,3 7,2 - - 16 9 - - WNW 0,0
06.07.2020 13:00:00 17,4 6,5 - - 15 8 - - NW 0,0
06.07.2020 12:00:00 17,2 7,4 - - 15 8 - - W 0,0
06.07.2020 11:00:00 16,6 6,8 - - 15 8 - - WNW 0,0
06.07.2020 10:00:00 17,1 7,9 18,2 18,0 16 9 - - WNW 0,0
06.07.2020 09:00:00 15,9 7,5 - - 15 8 - - WNW 0,0
06.07.2020 08:00:00 15,2 8,5 - - 16 9 - - W 0,0
06.07.2020 07:00:00 13,3 8,7 - - 13 7 - - W 0,0
06.07.2020 06:00:00 11,5 8,5 - - 8 4 - - WSW 0,0
06.07.2020 05:00:00 11,1 8,1 - - 8 4 - - WSW 0,0
06.07.2020 04:00:00 11,6 8,4 - - 9 5 - - WSW 0,0
06.07.2020 03:00:00 12,0 8,4 - - 8 4 - - WSW 0,0
06.07.2020 02:00:00 12,7 8,2 - - 9 5 - - WSW 0,0
06.07.2020 01:00:00 13,4 8,2 - - 15 8 - - W 0,0
06.07.2020 00:00:00 13,9 8,0 - - 16 9 48 26 W 0,0
05.07.2020 23:00:00 14,3 7,7 - - 21 11 48 26 W 0,0
05.07.2020 22:00:00 15,2 6,9 - - 21 11 48 26 W 0,0
05.07.2020 21:00:00 16,2 5,9 - - 22 12 50 27 W 0,0
05.07.2020 20:00:00 17,5 5,4 - - 24 13 55 30 W 0,0
05.07.2020 19:00:00 18,7 5,1 - - 24 13 50 27 W 0,0
05.07.2020 18:00:00 19,1 5,3 - - 24 13 52 28 W 0,0
05.07.2020 17:00:00 20,1 6,2 - - 26 14 55 30 W 0,0
05.07.2020 16:00:00 20,6 6,2 - - 22 12 54 29 W 0,0
05.07.2020 15:00:00 21,1 6,7 - - 24 13 55 30 W 0,0
05.07.2020 14:00:00 21,4 7,2 - - 22 12 50 27 W 0,0
05.07.2020 13:00:00 21,0 8,5 - - 18 10 46 25 W 0,0
05.07.2020 12:00:00 20,9 8,5 - - 18 10 46 25 WSW 0,0
05.07.2020 11:00:00 20,7 9,8 - - 18 10 - - W 0,0
05.07.2020 10:00:00 19,6 10,7 18,0 18,0 18 10 55 30 W 0,0
05.07.2020 09:00:00 18,8 11,7 - - 21 11 - - W 0,0
05.07.2020 08:00:00 17,9 14,7 - - 15 8 - - WSW 0,0
05.07.2020 07:00:00 17,4 14,6 - - 13 7 - - WSW 0,0
05.07.2020 06:00:00 17,2 14,5 - - 15 8 - - SW 0,0
05.07.2020 05:00:00 17,3 14,6 - - 13 7 - - SW 0,0
05.07.2020 04:00:00 17,0 14,8 - - 13 7 - - SW 0,0
05.07.2020 03:00:00 16,8 14,5 - - 13 7 - - SW 0,0
05.07.2020 02:00:00 16,9 14,4 - - 11 6 - - SW 0,0
05.07.2020 01:00:00 17,4 14,5 - - 13 7 - - SW 0,0
05.07.2020 00:00:00 17,9 15,0 - - 15 8 - - SW 0,0
04.07.2020 23:00:00 17,8 15,3 - - 11 6 - - SW 0,0
04.07.2020 22:00:00 17,8 15,5 - - 9 5 - - SW 0,0
04.07.2020 21:00:00 17,5 15,9 - - 11 6 - - SW 0,0
04.07.2020 20:00:00 18,1 15,4 - - 13 7 - - SW 0,0
04.07.2020 19:00:00 18,7 15,5 - - 13 7 - - SW 0,0
04.07.2020 18:00:00 18,6 15,3 - - 15 8 - - SW 0,0
04.07.2020 17:00:00 19,0 15,6 - - 13 7 - - SW 0,0
04.07.2020 16:00:00 20,3 16,0 - - 13 7 - - SW 0,0
04.07.2020 15:00:00 19,7 15,5 - - 13 7 - - SW 0,0
04.07.2020 14:00:00 19,5 15,3 - - 13 7 - - SW 0,0
04.07.2020 13:00:00 19,6 15,4 - - 15 8 - - SW 0,0
04.07.2020 12:00:00 19,5 15,1 - - 16 9 - - WSW 0,0
04.07.2020 11:00:00 19,5 14,9 - - 13 7 - - SW 0,0
04.07.2020 10:00:00 18,9 15,1 18,2 17,9 11 6 - - SW 0,0
04.07.2020 09:00:00 17,7 15,2 - - 13 7 - - SW 0,0
04.07.2020 08:00:00 17,1 15,0 - - 13 7 - - SW 0,0
04.07.2020 07:00:00 16,5 14,8 - - 13 7 - - SW 0,0
04.07.2020 06:00:00 15,9 14,6 - - 11 6 - - SW 0,0
04.07.2020 05:00:00 15,3 14,5 - - 11 6 - - SSW 0,2
04.07.2020 04:00:00 15,4 14,1 - - 13 7 - - SSW 0,4

tt = temperature
td = dewpoint
tt -20cm = temperature -20cm
tt -100cm = temperature -100cm
ff = wind speed
fx = gusts
dd = wind direction
rr = precipitation

Next stations